CST,Max TemperatureF,Mean TemperatureF,Min TemperatureF,Max Dew PointF,MeanDew PointF,Min DewpointF,Max Humidity, Mean Humidity, Min Humidity, Max Sea Level PressureIn, Mean Sea Level PressureIn, Min Sea Level PressureIn, Max VisibilityMiles, Mean VisibilityMiles, Min VisibilityMiles, Max Wind SpeedMPH, Mean Wind SpeedMPH, Max Gust SpeedMPH,PrecipitationIn, CloudCover, Events, WindDirDegrees
2013-1-1,28,18,8,27,17,7,100,90,85,30.03,29.93,29.86,10,7,2,25,15,31,0.15,7,Snow,247
2013-1-2,28,18,8,27,19,5,100,89,79,30.26,30.08,29.91,10,9,1,25,18,30,4.02,8,Rain-Snow,311
2013-1-3,23,16,10,16,10,7,93,79,63,30.24,30.05,29.95,10,10,2,29,13,36,0.00,1,,217
2013-1-4,17,11,5,12,7,1,85,78,68,30.03,29.96,29.86,10,10,10,18,11,23,0.00,0,,205
2013-1-5,19,10,1,14,7,-2,100,85,78,30.14,30.06,29.89,10,10,4,25,14,29,0.00,3,Rain-Snow,279
2013-1-6,30,18,6,23,16,5,100,85,74,30.12,29.82,29.62,10,8,0,26,12,31,0.00,3,Fog,206
2013-1-7,28,20,12,23,15,9,92,78,68,29.80,29.71,29.63,10,10,10,29,20,33,0.00,0,,236
2013-1-8,32,23,14,28,23,10,100,84,69,29.89,29.61,29.45,10,9,2,41,19,50,0.00,4,Rain,257
2013-1-9,37,22,8,28,18,5,92,80,65,30.00,29.86,29.68,10,10,10,24,12,31,0.00,2,,194
2013-1-10,32,24,17,28,24,14,100,87,80,29.68,29.60,29.54,10,10,9,28,13,32,0.00,3,,328
2013-1-11,15,8,0,14,5,-4,100,87,78,29.98,29.80,29.67,10,2,0,33,20,38,38.14,7,Rain-Snow,1
2013-1-12,0,-6,-13,-4,-12,-18,85,72,60,30.16,30.10,29.99,10,8,2,30,17,36,0.00,1,Rain,274
2013-1-13,1,-8,-16,-2,-9,-22,85,81,71,30.18,30.14,30.10,10,9,2,17,10,18,0.02,5,Snow,275
2013-1-14,6,0,-7,1,-5,-11,92,81,77,30.15,30.07,29.93,10,10,7,13,8,,0.00,7,Snow,215
2013-1-15,37,18,-2,32,18,-6,100,88,79,29.92,29.71,29.57,10,9,2,29,15,33,0.08,8,Rain-Snow,235
2013-1-16,35,26,17,32,23,14,100,88,80,30.13,29.92,29.67,10,10,1,18,13,22,0.07,7,Rain,310
2013-1-17,30,19,10,27,15,7,100,87,79,30.30,30.16,29.77,10,9,2,20,10,20,0.06,6,Snow,77
2013-1-18,35,30,26,30,27,23,93,82,70,29.76,29.70,29.66,10,10,10,23,14,25,0.00,2,,250
2013-1-19,35,16,-4,32,0,-11,93,75,66,30.34,30.15,29.72,10,10,2,38,20,52,0.01,3,Rain-Snow,305
2013-1-20,3,-6,-16,0,-14,-22,92,73,59,30.53,30.42,30.27,10,7,1,30,15,37,0.14,4,Rain-Snow,305
2013-1-21,0,-9,-18,-8,-15,-26,78,71,60,30.41,30.29,30.19,10,10,10,16,9,17,0.00,0,,287
2013-1-22,8,4,0,5,-1,-8,85,80,72,30.19,30.12,30.06,10,9,1,17,7,,0.00,5,Snow,231
2013-1-23,3,0,-4,0,-8,-11,85,75,71,30.44,30.35,30.19,10,10,10,17,12,22,0.00,1,,11
2013-1-24,23,12,0,18,2,-8,86,79,72,30.29,29.97,29.78,10,10,8,28,19,33,0.05,5,Rain-Snow,186
2013-1-25,10,0,-9,7,-5,-15,85,74,66,30.15,30.05,29.90,10,10,10,18,11,23,0.00,2,,180
2013-1-26,23,16,8,18,11,5,93,85,79,29.89,29.85,29.81,10,10,10,17,7,,0.00,3,,150
2013-1-27,26,16,6,27,12,5,100,89,79,29.80,29.76,29.72,10,7,0,16,7,,0.01,6,Fog-Rain-Snow,90
2013-1-28,26,16,5,27,13,1,100,91,79,29.78,29.75,29.72,10,7,0,10,6,,0.00,3,Fog,261
2013-1-29,17,4,-11,16,5,-18,100,87,70,30.16,29.90,29.71,10,3,0,33,9,45,1.42,8,Fog-Rain-Snow,317
2013-1-30,-9,-14,-18,-17,-21,-26,77,72,64,30.13,30.02,29.95,10,8,1,25,14,32,0.06,2,Rain-Snow,314
2013-1-31,-4,-13,-22,-9,-24,-29,78,70,63,30.31,30.21,30.03,10,9,2,23,15,28,0.00,2,Rain-Snow,275